Latest Weather Observations for Maryborough

IDQ60801

Issued at 11:33 am EST Saturday 25 June 2016 (issued every 30 minutes, with the page automatically refreshed every 10 minutes)

About weather observations | Map of weather stations | Latest weather observations for QLD | Other Formats
Station Details ID: 040126 Name: MARYBOROUGH Lat: -25.51 Lon: 152.72 Height: 8.98 m
Data from the previous 72 hours. | See also: Recent months at Maryborough
Date/Time
EST
Temp
°C
App
Temp
°C
Dew
Point
°C
Rel
Hum
%
Delta-T
°C
Wind Press
QNH
hPa
Press
MSL
hPa
Rain since
9am
mm
Dir  Spd
km/h
Gust
km/h
Spd
kts
Gust
kts
25/11:30am 16.3 12.0 1.2 36 6.6 SW 13 20 7 11 1019.4 - 0.0
25/11:00am 15.5 11.1 0.1 35 6.5 SSW 13 22 7 12 1019.8 - 0.0
25/10:30am 15.4 11.1 0.8 37 6.3 SW 13 24 7 13 1019.9 - 0.0
25/10:00am 15.0 10.8 1.9 41 5.8 SW 13 20 7 11 1019.9 - 0.0
25/09:30am 14.5 9.9 1.8 42 5.5 SSW 15 20 8 11 1020.2 - 0.0
25/09:00am 14.0 8.8 2.3 45 5.1 SW 19 24 10 13 1019.9 1019.9 0.0
25/08:30am 13.6 8.8 2.8 48 4.8 SSW 17 22 9 12 1020.0 - 0.0
25/08:00am 12.7 8.7 2.8 51 4.4 SSW 13 19 7 10 1019.5 - 0.0
25/07:30am 11.6 8.0 3.1 56 3.7 SW 11 15 6 8 1019.3 - 0.0
25/07:00am 10.5 7.2 2.4 57 3.5 SW 9 13 5 7 1018.9 - 0.0
25/06:30am 10.9 7.5 1.7 53 3.9 SW 9 15 5 8 1018.6 - 0.0
25/06:00am 11.1 6.9 1.9 53 3.9 SW 13 19 7 10 1018.1 1018.1 0.0
25/05:30am 11.6 7.4 1.8 51 4.2 SW 13 20 7 11 1017.6 - 0.0
25/05:00am 11.4 7.3 2.2 53 3.9 SW 13 19 7 10 1017.1 - 0.0
25/04:30am 12.3 7.6 3.0 53 4.1 SW 17 20 9 11 1016.5 - 0.0
25/04:00am 12.4 9.2 3.1 53 4.1 SSW 9 17 5 9 1016.3 - 0.0
25/03:30am 13.5 9.6 3.6 51 4.5 SW 13 22 7 12 1016.1 - 0.0
25/03:00am 14.3 9.3 3.5 48 4.9 WSW 19 30 10 16 1015.7 1015.7 0.0
25/02:30am 14.8 8.9 3.9 48 5.0 WSW 24 39 13 21 1015.6 - 0.0
25/02:00am 14.7 9.6 4.1 49 4.9 WSW 20 33 11 18 1015.7 - 0.0
25/01:30am 15.3 10.3 4.4 48 5.1 WSW 20 35 11 19 1015.8 - 0.0
25/01:00am 15.7 10.9 4.7 48 5.2 WSW 19 32 10 17 1016.0 - 0.0
25/12:30am 15.9 11.1 4.9 48 5.2 WSW 19 30 10 16 1015.9 - 0.0
25/12:00am 16.2 11.4 5.5 49 5.1 SW 20 33 11 18 1016.1 1016.1 0.0
 
Date/Time
EST
Temp
°C
App
Temp
°C
Dew
Point
°C
Rel
Hum
%
Delta-T
°C
Wind Press
QNH
hPa
Press
MSL
hPa
Rain since
9am
mm
Dir  Spd
km/h
Gust
km/h
Spd
kts
Gust
kts
24/11:30pm 16.5 12.1 6.6 52 4.9 SW 19 28 10 15 1016.0 - 0.0
24/11:00pm 17.2 13.3 7.3 52 5.0 WSW 17 28 9 15 1015.7 - 0.0
24/10:30pm 17.8 13.6 8.4 54 4.8 WSW 20 28 11 15 1015.6 - 0.0
24/10:00pm 18.5 14.7 9.8 57 4.6 WSW 20 28 11 15 1015.3 - 0.0
24/09:30pm 18.5 15.2 10.8 61 4.2 SW 19 26 10 14 1014.9 - 0.0
24/09:00pm 17.7 15.3 11.3 66 3.5 WSW 15 22 8 12 1014.7 1014.7 0.0
24/08:30pm 16.5 15.1 11.0 70 2.9 SW 9 11 5 6 1014.5 - 0.0
24/08:00pm 16.6 15.2 10.9 69 3.1 SW 9 13 5 7 1014.3 - 0.0
24/07:30pm 18.4 17.4 12.2 67 3.4 W 9 11 5 6 1013.8 - 0.0
24/07:00pm 18.5 17.6 12.5 68 3.3 W 9 9 5 5 1013.3 - 0.0
24/06:30pm 17.5 16.0 11.8 69 3.1 W 11 13 6 7 1012.8 - 0.0
24/06:00pm 18.1 16.4 12.3 69 3.2 WNW 13 15 7 8 1012.4 1012.4 0.0
24/05:30pm 18.1 16.6 11.9 67 3.4 WNW 11 13 6 7 1011.9 - 0.0
24/05:00pm 21.2 19.7 11.8 55 5.2 WNW 11 13 6 7 1011.5 - 0.0
24/04:30pm 23.6 21.8 12.0 48 6.6 W 13 20 7 11 1011.2 - 0.0
24/04:00pm 24.2 21.4 11.5 45 7.2 W 17 28 9 15 1011.1 - 0.0
24/03:30pm 23.2 20.5 11.6 48 6.5 W 17 26 9 14 1011.1 - 0.0
24/03:00pm 23.7 20.6 11.7 47 6.8 W 19 30 10 16 1011.1 1011.1 0.0
24/02:30pm 24.3 21.4 12.3 47 6.9 W 19 32 10 17 1011.3 - 0.0
24/02:00pm 24.4 21.4 12.7 48 6.7 W 20 30 11 16 1011.6 - 0.0
24/01:30pm 23.2 20.5 12.8 52 6.0 WSW 19 30 10 16 1012.1 - 0.0
24/01:00pm 23.4 21.5 13.0 52 6.0 W 15 22 8 12 1012.4 - 0.0
24/12:30pm 22.6 20.0 13.1 55 5.5 W 19 28 10 15 1012.9 - 0.0
24/12:00pm 22.4 19.9 14.0 59 4.9 WSW 20 30 11 16 1013.0 1013.0 0.0
24/11:30am 22.1 20.6 15.2 65 4.1 WSW 17 24 9 13 1013.4 - 0.0
24/11:00am 20.9 21.3 16.3 75 2.8 W 9 13 5 7 1013.9 - 0.0
24/10:30am 20.1 20.9 16.3 79 2.3 W 7 11 4 6 1014.4 - 0.0
24/10:00am 19.6 20.5 16.6 83 1.8 WNW 7 9 4 5 1014.7 - 0.0
24/09:30am 19.0 19.8 16.4 85 1.6 WNW 7 9 4 5 1014.6 - 0.0
24/09:00am 18.7 19.6 16.7 88 1.2 WNW 7 9 4 5 1014.4 1014.4 0.0
24/08:30am 17.6 17.6 15.2 86 1.4 NW 9 11 5 6 1014.4 - 0.0
24/08:00am 17.0 17.7 16.2 95 0.5 NNW 7 9 4 5 1014.2 - 0.0
24/07:30am 16.3 17.5 15.8 97 0.3 NE 4 7 2 4 1014.0 - 0.0
24/07:00am 15.8 17.5 15.2 96 0.3 CALM 0 0 0 0 1013.5 - 0.0
24/06:30am 15.8 16.2 15.3 97 0.3 NE 7 9 4 5 1013.5 - 0.0
24/06:00am 15.4 17.0 14.8 96 0.3 CALM 0 0 0 0 1013.2 1013.2 0.0
24/05:30am 15.2 16.7 14.6 96 0.3 CALM 0 0 0 0 1012.8 - 0.0
24/05:00am 15.0 16.4 14.4 96 0.3 CALM 0 0 0 0 1012.5 - 0.0
24/04:30am 14.9 16.3 14.3 96 0.3 CALM 0 0 0 0 1012.5 - 0.0
24/04:00am 14.7 16.0 14.1 96 0.3 CALM 0 0 0 0 1012.5 - 0.0
24/03:30am 14.6 15.9 14.1 97 0.3 CALM 0 0 0 0 1012.6 - 0.0
24/03:00am 14.6 14.8 14.1 97 0.3 NE 6 7 3 4 1012.7 1012.7 0.0
24/02:30am 14.2 15.4 13.7 97 0.3 CALM 0 0 0 0 1013.0 - 0.0
24/02:00am 13.8 14.8 13.3 97 0.3 CALM 0 0 0 0 1013.0 - 0.0
24/01:30am 13.3 14.1 12.7 96 0.3 CALM 0 0 0 0 1013.5 - 0.0
24/01:12am 12.7 13.4 12.1 96 0.3 CALM 0 0 0 0 1013.6 - 0.0
24/01:00am 12.6 13.2 12.0 96 0.3 CALM 0 0 0 0 1013.5 - 0.0
24/12:30am 12.4 12.9 11.6 95 0.4 CALM 0 0 0 0 1013.5 - 0.0
24/12:12am 12.6 13.2 11.8 95 0.4 CALM 0 0 0 0 1013.6 - 0.0
24/12:00am 12.6 13.2 11.8 95 0.4 CALM 0 0 0 0 1013.8 1013.8 0.0
 
Date/Time
EST
Temp
°C
App
Temp
°C
Dew
Point
°C
Rel
Hum
%
Delta-T
°C
Wind Press
QNH
hPa
Press
MSL
hPa
Rain since
9am
mm
Dir  Spd
km/h
Gust
km/h
Spd
kts
Gust
kts
23/11:30pm 12.4 12.9 11.5 94 0.5 CALM 0 0 0 0 1013.5 - 0.0
23/11:19pm 12.6 13.2 11.8 95 0.4 CALM 0 0 0 0 1013.8 - 0.0
23/11:00pm 13.0 13.7 12.2 95 0.4 CALM 0 0 0 0 1014.0 - 0.0
23/10:41pm 13.0 13.7 12.2 95 0.4 CALM 0 0 0 0 1014.1 - 0.0
23/10:30pm 12.9 13.5 12.0 94 0.5 CALM 0 0 0 0 1014.1 - 0.0
23/10:05pm 13.1 13.8 12.2 94 0.5 CALM 0 0 0 0 1014.6 - 0.0
23/10:00pm 13.2 13.9 12.3 94 0.5 CALM 0 0 0 0 1014.6 - 0.0
23/09:59pm 13.3 14.1 12.4 94 0.5 CALM 0 0 0 0 1014.6 - 0.0
23/09:30pm 13.1 13.7 12.0 93 0.6 CALM 0 0 0 0 1014.4 - 0.0
23/09:00pm 13.6 13.6 12.3 92 0.7 NE 4 6 2 3 1014.1 1014.1 0.0
23/08:30pm 14.0 14.1 12.7 92 0.7 NE 4 6 2 3 1014.0 - 0.0
23/08:00pm 14.7 14.6 13.4 92 0.7 NE 6 6 3 3 1014.1 - 0.0
23/07:30pm 15.1 15.3 13.0 87 1.2 NE 4 7 2 4 1013.8 - 0.0
23/07:00pm 16.1 15.7 13.0 82 1.7 NE 7 9 4 5 1013.7 - 0.0
23/06:30pm 17.0 16.9 13.9 82 1.8 NE 7 11 4 6 1013.7 - 0.0
23/06:00pm 16.9 16.6 13.2 79 2.1 N 7 9 4 5 1013.5 1013.5 0.0
23/05:30pm 18.2 17.2 13.3 73 2.8 N 11 15 6 8 1013.1 - 0.0
23/05:00pm 19.5 18.1 13.4 68 3.5 N 13 19 7 10 1012.7 - 0.0
23/04:30pm 21.2 20.6 13.4 61 4.5 N 9 17 5 9 1012.3 - 0.0
23/04:00pm 22.6 21.8 12.8 54 5.6 N 9 17 5 9 1012.1 - 0.0
23/03:30pm 23.5 22.7 13.9 55 5.6 NNE 11 20 6 11 1012.2 - 0.0
23/03:00pm 25.0 24.6 11.2 42 7.8 ESE 4 9 2 5 1012.3 1012.3 0.0
23/02:30pm 24.8 23.7 10.7 41 7.9 WNW 7 11 4 6 1012.1 - 0.0
23/02:00pm 24.5 23.1 10.8 42 7.6 S 9 15 5 8 1012.5 - 0.0
23/01:30pm 24.1 22.2 10.4 42 7.6 SSW 11 17 6 9 1012.7 - 0.0
23/01:00pm 24.3 23.1 11.6 45 7.2 WSW 9 17 5 9 1013.4 - 0.0
23/12:30pm 24.4 23.2 11.7 45 7.2 SW 9 19 5 10 1014.0 - 0.0
23/12:00pm 23.5 22.5 10.9 45 7.0 SSW 7 17 4 9 1014.3 1014.3 0.0
23/11:30am 22.9 21.5 11.0 47 6.6 SW 9 13 5 7 1015.0 - 0.0
23/11:00am 22.4 21.4 10.9 48 6.4 W 7 13 4 7 1015.4 - 0.0
23/10:30am 21.8 20.7 11.8 53 5.6 SW 9 13 5 7 1015.9 - 0.0
23/10:00am 20.0 18.4 11.5 58 4.7 SSW 11 17 6 9 1016.4 - 0.0
23/09:30am 20.1 17.4 11.8 59 4.6 SW 17 20 9 11 1016.8 - 0.0
23/09:00am 18.8 16.4 12.8 68 3.4 SW 17 20 9 11 1017.0 1017.0 0.0
23/08:30am 17.2 16.0 11.7 70 3.0 SW 9 15 5 8 1016.5 - 0.0
23/08:00am 14.9 14.1 11.7 81 1.7 WNW 7 9 4 5 1016.2 - 0.0
23/07:30am 12.9 12.2 11.5 91 0.7 N 6 7 3 4 1016.2 - 0.0
23/07:00am 11.6 10.6 10.3 92 0.7 N 6 7 3 4 1015.9 - 0.0
23/06:53am 11.6 10.4 10.3 92 0.7 N 7 9 4 5 1016.0 - 0.0
23/06:30am 11.4 10.4 10.3 93 0.6 N 6 7 3 4 1015.9 - 0.0
23/06:08am 11.7 11.9 10.6 93 0.6 CALM 0 0 0 0 1015.8 - 0.0
23/06:00am 11.8 11.6 10.5 92 0.7 W 2 6 1 3 1015.7 1015.7 0.0
23/05:30am 11.8 11.1 10.2 90 0.8 NW 4 7 2 4 1015.8 - 0.0
23/05:00am 11.9 11.3 10.3 90 0.8 NNW 4 6 2 3 1015.2 - 0.0
23/04:30am 12.0 11.1 10.6 91 0.7 NNW 6 7 3 4 1014.8 - 0.0
23/04:00am 12.0 10.8 10.4 90 0.8 N 7 9 4 5 1014.4 - 0.0
23/03:59am 12.1 10.6 10.5 90 0.8 N 9 9 5 5 1014.4 - 0.0
23/03:30am 12.1 11.2 10.8 92 0.7 N 6 7 3 4 1014.5 - 0.0
23/03:14am 12.1 11.6 10.7 91 0.7 N 4 7 2 4 1014.5 - 0.0
23/03:00am 12.1 11.5 10.5 90 0.8 N 4 7 2 4 1014.7 1014.7 0.0
23/02:30am 12.5 11.7 11.1 91 0.7 N 6 7 3 4 1015.1 - 0.0
23/02:00am 12.2 12.4 10.6 90 0.8 CALM 0 0 0 0 1014.9 - 0.0
23/01:30am 12.5 11.7 10.9 90 0.8 N 6 7 3 4 1015.0 - 0.0
23/01:00am 12.5 11.6 10.6 88 1.0 N 6 7 3 4 1015.2 - 0.0
23/12:30am 12.7 12.0 11.3 91 0.7 WSW 6 7 3 4 1015.3 - 0.0
23/12:00am 12.7 13.0 10.9 89 0.9 CALM 0 0 0 0 1015.4 1015.4 0.0
 
Date/Time
EST
Temp
°C
App
Temp
°C
Dew
Point
°C
Rel
Hum
%
Delta-T
°C
Wind Press
QNH
hPa
Press
MSL
hPa
Rain since
9am
mm
Dir  Spd
km/h
Gust
km/h
Spd
kts
Gust
kts
22/11:30pm 13.0 13.4 11.1 88 1.0 CALM 0 0 0 0 1015.7 - 0.0
22/11:00pm 13.0 13.4 11.4 90 0.8 CALM 0 0 0 0 1015.4 - 0.0
22/10:30pm 12.9 13.4 11.5 91 0.7 CALM 0 0 0 0 1015.3 - 0.0
22/10:00pm 12.8 12.0 11.2 90 0.8 WSW 6 7 3 4 1015.1 - 0.0
22/09:30pm 12.5 12.0 10.7 89 0.9 WSW 4 7 2 4 1015.0 - 0.0
22/09:00pm 13.2 12.5 11.3 88 1.0 WSW 6 7 3 4 1015.1 1015.1 0.0
22/08:30pm 13.2 12.9 11.6 90 0.9 NNE 4 7 2 4 1014.8 - 0.0
22/08:00pm 13.5 13.9 11.2 86 1.2 CALM 0 0 0 0 1015.3 - 0.0
22/07:30pm 13.7 12.8 11.2 85 1.3 NNE 7 7 4 4 1014.6 - 0.0
22/07:00pm 14.0 14.3 11.0 82 1.6 CALM 0 0 0 0 1014.4 - 0.0
22/06:30pm 14.6 14.9 11.0 79 1.9 CALM 0 0 0 0 1013.7 - 0.0
22/06:00pm 15.6 15.7 11.4 76 2.3 NNE 2 6 1 3 1013.0 1013.0 0.0
22/05:30pm 15.8 15.0 11.0 73 2.6 NW 6 9 3 5 1012.6 - 0.0
22/05:00pm 17.2 17.3 10.3 64 3.7 CALM 0 0 0 0 1012.7 - 0.0
22/04:30pm 20.0 19.6 11.0 56 4.9 NW 4 7 2 4 1012.4 - 0.0
22/04:00pm 22.0 20.0 8.5 42 7.1 NNW 9 13 5 7 1012.0 - 0.0
22/03:30pm 22.4 20.6 8.1 40 7.5 W 7 13 4 7 1012.3 - 0.0
22/03:00pm 22.6 18.9 8.0 39 7.7 SW 17 24 9 13 1012.8 1012.8 0.0
22/02:30pm 23.5 19.3 8.4 38 8.0 SSW 20 28 11 15 1012.4 - 0.0
22/02:00pm 23.6 20.3 8.1 37 8.2 WSW 15 19 8 10 1012.1 - 0.0
22/01:30pm 23.4 20.7 7.5 36 8.3 W 11 19 6 10 1011.8 - 0.0
22/01:00pm 23.5 20.3 8.4 38 8.0 SW 15 24 8 13 1012.0 - 0.0
22/12:30pm 23.5 19.5 8.4 38 8.0 SW 19 26 10 14 1012.6 - 0.0
22/12:00pm 23.2 19.4 8.9 40 7.7 WSW 19 30 10 16 1013.4 1013.4 0.0

Other Formats:

Comma delimited format used in spreadsheet applications
http://www.bom.gov.au/fwo/IDQ60801/IDQ60801.94567.axf

JavaScript Object Notation format (JSON) in row-major order
http://www.bom.gov.au/fwo/IDQ60801/IDQ60801.94567.json